Logo AVAMET
Benvolgut visitant, si us plau, ingressa Recuperar contrasenya
AVAMET paisatges

Alacant Serra Grossa (I.Jesuïtes)

Dades diàries. Acumulats / Últims 30 dies disponibles

Data Temperatura (°C) Humitat rel. (%) Pressió rel. (hPa) Vent (km/h) Precipitació
Mínima Mitjana Màxima Amplitud
tèrmica
Mínima Mitjana Màxima Mínima Mitjana Màxima Predom. Mitjana Ràfega
màxima
Total
(mm)
Índex-n
Mínima Mitjana Màxima Mínima Mitjana Màxima n
0 a 1
P0 max
mm 5'
Dades mensuals acumulades fins l'últim dia disponible
09/2020 18,9 20,7 22,5 24,0 25,4 27,6 29,8 10,9 40 69 88 1.008 1.015 1.022   4,5 45,1 2,3
Dades anuals acumulades fins l'últim dia disponible
2020 6,1 15,6 25,5 19,0 11,2 22,5 33,5 27,4 22 71 95 996 1.013 1.027   6,3 88,5 155,2
Últims 30 dies disponibles
21-09-2020 21,7     24,4     29,4 7,7 40 64 78 1.012 1.013 1.014 NNE 4,1 35,4 0,0
20-09-2020 22,3     24,7     28,7 6,4 42 58 70 1.012 1.014 1.015 WSW 6,8 45,1 0,0
19-09-2020 19,9     24,0     29,8 9,9 44 70 86 1.011 1.012 1.014 SE 6,0 43,5 0,0
18-09-2020 20,6     23,0     25,4 4,8 60 77 88 1.011 1.013 1.015 N 3,0 37,0 2,3 0,26 0,30
17-09-2020 22,4     24,5     28,2 5,8 58 74 87 1.011 1.013 1.015 ENE 3,3 20,9 0,0
16-09-2020 20,8     24,5     29,3 8,5 49 75 87 1.013 1.015 1.017 ESE 2,9 25,7 0,0
15-09-2020 22,5     25,2     28,9 6,4 56 75 87 1.016 1.018 1.020 ENE 3,6 25,7 0,0
14-09-2020 21,2     24,5     27,3 6,1 58 71 85 1.017 1.019 1.020 E 4,5 29,0 0,0
13-09-2020 21,6     25,1     28,8 7,2 46 63 79 1.017 1.019 1.020 ENE 3,7 29,0 0,0
12-09-2020 20,8     25,1     29,8 9,0 42 61 79 1.013 1.015 1.018 ESE 2,9 22,5 0,0
11-09-2020 20,0     23,9     26,8 6,8 60 72 80 1.011 1.012 1.014 S 5,2 30,6 0,0
10-09-2020 20,3     23,3     25,9 5,6 62 75 80 1.013 1.015 1.017 S 4,9 27,4 0,0
09-09-2020 20,1     23,2     26,1 6,0 52 65 78 1.016 1.017 1.019 NNW 5,9 32,2 0,0
08-09-2020 18,9     22,4     25,6 6,7 50 63 75 1.017 1.018 1.020 NE 6,1 33,8 0,0
07-09-2020 20,8     23,8     26,6 5,8 56 72 82 1.012 1.014 1.017 ESE 6,0 38,6 0,0
06-09-2020 19,9     24,0     27,6 7,7 59 72 81 1.012 1.014 1.016 SE 4,5 25,7 0,0
05-09-2020 20,3     23,9     27,2 6,9 62 73 78 1.015 1.017 1.019 ESE 3,7 25,7 0,0
04-09-2020 20,0     23,9     26,8 6,8 59 70 76 1.018 1.020 1.022 ENE 6,5 32,2 0,0
03-09-2020 20,4     24,4     27,8 7,4 60 69 78 1.016 1.018 1.021 ESE 3,5 29,0 0,0
02-09-2020 20,8     24,2     27,7 6,9 57 69 76 1.010 1.013 1.016 ESE 3,5 24,1 0,0
01-09-2020 19,4     23,0     26,0 6,6 59 68 75 1.008 1.011 1.015 SE 3,4 32,2 0,0
31-08-2020 18,4     22,7     26,6 8,2 45 58 70 1.014 1.015 1.016 ESE 3,7 30,6 0,0
30-08-2020 19,6     22,6     25,8 6,2 46 62 76 1.005 1.009 1.014 NNW 5,7 33,8 0,0
29-08-2020 21,1     25,1     28,6 7,5 65 79 92 998 1.000 1.005 E 7,7 45,1 4,1 0,26 1,50
28-08-2020 23,0     26,0     28,0 5,0 69 81 90 1.000 1.005 1.010 SSE 5,8 25,7 0,0
27-08-2020 23,8     26,9     31,9 8,1 41 73 89 1.010 1.013 1.015 NE 4,8 24,1 0,0
26-08-2020 22,7     26,8     30,9 8,2 49 77 90 1.014 1.015 1.016 SE 3,9 25,7 0,0
25-08-2020 23,4     26,5     30,3 6,9 55 78 87 1.012 1.013 1.014 SSE 5,1 25,7 0,0
24-08-2020 24,8     26,8     28,9 4,1 70 79 86 1.012 1.014 1.015 SE 4,9 30,6 0,0
23-08-2020 24,8     27,4     30,3 5,5 72 81 88 1.014 1.015 1.017 E 4,6 24,1 0,0
Últims 13 mesos disponibles
08/2020 18,4 23,5 25,3 26,4 25,8 29,7 33,5 15,1 57 73 84 1.000 1.011 1.016 ESE 5,1 46,7 6,8
07/2020 0,0
06/2020 15,2 18,2 20,8 22,5 22,6 26,7 31,9 16,7 ENE 7,4 49,7 17,3
05/2020 12,4 15,7 18,5 19,9 19,7 23,8 28,8 16,4 NE 8,0 51,5 24,0
04/2020 9,8 13,0 15,9 16,0 16,2 19,1 25,3 15,5 55 74 86 1.003 1.011 1.018 ENE 6,2 53,1 33,2
03/2020 8,6 12,1 18,4 14,9 11,2 18,1 24,6 16,0 43 69 90 1.001 1.009 1.018 SE 7,9 88,5 52,3
02/2020 7,7 11,3 15,0 14,9 14,2 19,5 27,7 20,0 38 71 92 1.008 1.018 1.026 E 4,6 49,9 2,6
01/2020 6,1 9,7 16,6 13,2 13,3 16,0 21,8 15,7 55 70 84 1.006 1.017 1.025 S 6,4 70,8 26,7
12/2019 9,4 11,8 17,3 14,8 13,8 18,2 23,3 13,9 43 68 84 999 1.012 1.025 SE 6,4 86,9 43,5
11/2019 8,4 13,2 20,8 16,0 12,2 19,4 27,6 19,2 44 57 86 994 1.005 1.012 O 9,5 85,3 20,0
10/2019 12,3 17,0 21,8 20,3 15,9 24,0 28,8 16,5 47 71 87 1.002 1.010 1.015 SE 4,6 49,9 41,4
09/2019 15,8 20,1 22,3 23,3 22,3 26,5 31,7 15,9 59 78 87 1.004 1.010 1.015 4,3 59,5 113,8
08/2019 21,6 23,6 25,5 26,3 25,7 29,2 35,0 13,4 58 76 90 1.004 1.008 1.012 SE 5,8 43,4 82,3
Tots els anys disponibles
2019 3,4 15,3 26,1 18,5 12,2 21,9 35,0 31,6 23 67 90 991 1.010 1.026 SE 6,5 86,9 420,0
2018 4,8 14,6 25,7 17,7 10,2 21,8 34,5 29,7 40 68 87 989 1.010 1.025 SE 6,2 86,8 266,0
2017 3,5 11,7 19,4 18,7 19,5 27,1 33,1 29,6 59 68 74 1.007 1.010 1.015 5,5 77,4 272,1
2016 7,9 16,4 25,3 19,4 12,7 22,6 35,3 27,4 38 69 91 991 1.010 1.028 4,5 66,0 190,6
2015 6,7 17,4 26,6 20,4 12,5 23,5 36,8 30,1 61 68 73 1.010 1.013 1.023 3,5 59,0 216,5
2014 4,2 15,9 25,8 19,1 11,3 22,2 35,3 31,1 39 66 83 989 1.012 1.029 89,0 134,6
2013 3,6 15,0 18,4 18,3 19,8 21,5 35,1 31,5 55 64 71 1.006 1.013 1.021 90,0 192,2
Temperatura (°C)
Humitat relativa (%)
Velocitat del vent i ràfega màxima (km/h)
Direcció del vent (°)
Precipitació (mm)
Nota sobre les dades: s'avisa a l'usuari de la provisionalitat i no oficialitat d'aquestes dades
Logo AVAMET blanc
Web allotjada a Sollutia
Llicència de Creative CommonsLa web d'AVAMET i els seus continguts estan subjectes a una llicència de
Reconeixement - No Comercial - Compartir igual
Últimes estacions: Castelló de la Plana - Grup Sant Agustí (Soci), Llíria - Urb. San Gerardo (Soci), Xàtiva - Ausiàs March (Soci), Gandia - Parpalló/Borrell (AVAMET), Olocau del Rei - La Magdalena (Electra/Soci), Ademuz - IES Ademuz (Soci), La Jana (Ajuntament Soci), Villahermosa del Río - la Cañada (Soci), Benassal (Ajuntament Soci), la Torre de les Maçanes - la Canaleta (Soci) - - -